BCS89T LFBO-LPPT
Flight info
| Callsign | BCS89T |
|---|---|
| Flight time | 1h 29m |
| Altitude | 33000 |
| Route | GAUDE DCT LATEK/N0458F350 N995 PPN DCT MIRPO DCT DGO DCT NEA DCT ARDID DCT INBOM |
| Aircraft | A306/H-SDE3FGHIRWY/LB1 |
Departure
| Time | 2026-04-29 08:56 |
|---|---|
| Airport | Toulouse-Blagnac Airport (LFBO) |
Arrival
| Time | 2026-04-29 10:25 |
|---|---|
| Airport | Lisbon Humberto Delgado Airport (LPPT) |
| Time | Latitude | Longitude | Altitude | Speed | Heading |
|---|---|---|---|---|---|
| 2026-04-29 08:24 | 43.62441 | 1.37736 | 510 ft | 0 kts | 323° |
| 2026-04-29 08:45 | 43.62441 | 1.37737 | 510 ft | 1 kts | 323° |
| 2026-04-29 08:45 | 43.62434 | 1.37744 | 510 ft | 1 kts | 323° |
| 2026-04-29 08:46 | 43.62430 | 1.37748 | 510 ft | 1 kts | 323° |
| 2026-04-29 08:46 | 43.62422 | 1.37757 | 510 ft | 1 kts | 323° |
| 2026-04-29 08:46 | 43.62411 | 1.37768 | 510 ft | 3 kts | 323° |
| 2026-04-29 08:46 | 43.62398 | 1.37787 | 510 ft | 3 kts | 273° |
| 2026-04-29 08:47 | 43.62398 | 1.37798 | 510 ft | 0 kts | 244° |
| 2026-04-29 08:50 | 43.62398 | 1.37797 | 510 ft | 1 kts | 244° |
| 2026-04-29 08:50 | 43.62394 | 1.37784 | 510 ft | 10 kts | 244° |
| 2026-04-29 08:50 | 43.62341 | 1.37672 | 510 ft | 11 kts | 230° |
| 2026-04-29 08:50 | 43.62308 | 1.37603 | 510 ft | 3 kts | 260° |
| 2026-04-29 08:51 | 43.62316 | 1.37568 | 510 ft | 6 kts | 297° |
| 2026-04-29 08:51 | 43.62359 | 1.37508 | 510 ft | 12 kts | 323° |
| 2026-04-29 08:51 | 43.62504 | 1.37356 | 509 ft | 37 kts | 323° |
| 2026-04-29 08:51 | 43.62703 | 1.37149 | 509 ft | 35 kts | 323° |
| 2026-04-29 08:52 | 43.62893 | 1.36950 | 508 ft | 34 kts | 323° |
| 2026-04-29 08:52 | 43.63076 | 1.36762 | 507 ft | 32 kts | 323° |
| 2026-04-29 08:52 | 43.63253 | 1.36581 | 507 ft | 31 kts | 323° |
| 2026-04-29 08:52 | 43.63422 | 1.36405 | 506 ft | 30 kts | 323° |
| 2026-04-29 08:53 | 43.63587 | 1.36233 | 506 ft | 30 kts | 323° |
| 2026-04-29 08:53 | 43.63755 | 1.36057 | 505 ft | 33 kts | 322° |
| 2026-04-29 08:53 | 43.63938 | 1.35864 | 504 ft | 33 kts | 323° |
| 2026-04-29 08:53 | 43.64126 | 1.35670 | 505 ft | 34 kts | 322° |
| 2026-04-29 08:54 | 43.64318 | 1.35472 | 504 ft | 35 kts | 324° |
| 2026-04-29 08:54 | 43.64467 | 1.35229 | 504 ft | 33 kts | 292° |
| 2026-04-29 08:54 | 43.64533 | 1.34927 | 503 ft | 30 kts | 270° |
| 2026-04-29 08:54 | 43.64477 | 1.34751 | 503 ft | 19 kts | 240° |
| 2026-04-29 08:55 | 43.64402 | 1.34649 | 503 ft | 11 kts | 198° |
| 2026-04-29 08:55 | 43.64358 | 1.34660 | 502 ft | 2 kts | 144° |
| 2026-04-29 08:55 | 43.64349 | 1.34668 | 502 ft | 1 kts | 144° |
| 2026-04-29 08:55 | 43.64253 | 1.34767 | 504 ft | 47 kts | 143° |
| 2026-04-29 08:56 | 43.63813 | 1.35219 | 505 ft | 109 kts | 143° |
| 2026-04-29 08:56 | 43.63052 | 1.36012 | 526 ft | 163 kts | 142° |
| 2026-04-29 08:56 | 43.62083 | 1.37000 | 1045 ft | 179 kts | 140° |
| 2026-04-29 08:56 | 43.61198 | 1.37994 | 1571 ft | 150 kts | 137° |
| 2026-04-29 08:57 | 43.60403 | 1.38919 | 1841 ft | 161 kts | 137° |
| 2026-04-29 08:57 | 43.59538 | 1.40054 | 2587 ft | 176 kts | 135° |
| 2026-04-29 08:57 | 43.58592 | 1.41228 | 3360 ft | 192 kts | 142° |
| 2026-04-29 08:57 | 43.57416 | 1.42276 | 3975 ft | 214 kts | 149° |
| 2026-04-29 08:58 | 43.56081 | 1.43471 | 4322 ft | 248 kts | 147° |
| 2026-04-29 08:58 | 43.54572 | 1.44827 | 4987 ft | 262 kts | 148° |
| 2026-04-29 08:58 | 43.53044 | 1.46239 | 5938 ft | 268 kts | 145° |
| 2026-04-29 08:58 | 43.51463 | 1.47685 | 6778 ft | 276 kts | 154° |
| 2026-04-29 08:59 | 43.49613 | 1.48183 | 7816 ft | 276 kts | 186° |
| 2026-04-29 08:59 | 43.47888 | 1.47019 | 8587 ft | 289 kts | 224° |
| 2026-04-29 08:59 | 43.46703 | 1.44757 | 9475 ft | 294 kts | 234° |
| 2026-04-29 08:59 | 43.45530 | 1.42586 | 10902 ft | 272 kts | 231° |
| 2026-04-29 09:00 | 43.44436 | 1.40526 | 11930 ft | 274 kts | 235° |
| 2026-04-29 09:00 | 43.43459 | 1.38170 | 12385 ft | 294 kts | 239° |
| 2026-04-29 09:00 | 43.42277 | 1.35771 | 12728 ft | 312 kts | 227° |
| 2026-04-29 09:00 | 43.40731 | 1.33564 | 13068 ft | 330 kts | 224° |
| 2026-04-29 09:01 | 43.39063 | 1.31279 | 13390 ft | 347 kts | 224° |
| 2026-04-29 09:01 | 43.37334 | 1.28861 | 13741 ft | 363 kts | 225° |
| 2026-04-29 09:01 | 43.35549 | 1.26305 | 14100 ft | 376 kts | 225° |
| 2026-04-29 09:01 | 43.33754 | 1.23710 | 14640 ft | 383 kts | 225° |
| 2026-04-29 09:02 | 43.32010 | 1.20916 | 15248 ft | 389 kts | 233° |
| 2026-04-29 09:02 | 43.30780 | 1.17576 | 15803 ft | 397 kts | 250° |
| 2026-04-29 09:02 | 43.30346 | 1.13803 | 16475 ft | 404 kts | 266° |
| 2026-04-29 09:02 | 43.30405 | 1.09940 | 17089 ft | 409 kts | 270° |
| 2026-04-29 09:03 | 43.30545 | 1.05997 | 17676 ft | 414 kts | 271° |
| 2026-04-29 09:03 | 43.30675 | 1.02039 | 18248 ft | 417 kts | 269° |
| 2026-04-29 09:03 | 43.30452 | 0.98067 | 18742 ft | 418 kts | 257° |
| 2026-04-29 09:03 | 43.29483 | 0.94333 | 19258 ft | 417 kts | 241° |
| 2026-04-29 09:04 | 43.27807 | 0.91161 | 19776 ft | 418 kts | 225° |
| 2026-04-29 09:04 | 43.25579 | 0.88601 | 20286 ft | 419 kts | 216° |
| 2026-04-29 09:04 | 43.23200 | 0.86267 | 20773 ft | 422 kts | 215° |
| 2026-04-29 09:04 | 43.20790 | 0.83941 | 21246 ft | 425 kts | 215° |
| 2026-04-29 09:05 | 43.18383 | 0.81607 | 21697 ft | 428 kts | 215° |
| 2026-04-29 09:05 | 43.15937 | 0.79226 | 22167 ft | 431 kts | 215° |
| 2026-04-29 09:05 | 43.13485 | 0.76833 | 22608 ft | 434 kts | 216° |
| 2026-04-29 09:05 | 43.11019 | 0.74425 | 23046 ft | 437 kts | 216° |
| 2026-04-29 09:06 | 43.08538 | 0.72001 | 23467 ft | 440 kts | 216° |
| 2026-04-29 09:06 | 43.06068 | 0.69519 | 23823 ft | 442 kts | 218° |
| 2026-04-29 09:06 | 43.03827 | 0.66714 | 24200 ft | 444 kts | 226° |
| 2026-04-29 09:06 | 43.01909 | 0.63407 | 24594 ft | 445 kts | 236° |
| 2026-04-29 09:07 | 43.00417 | 0.59699 | 24968 ft | 448 kts | 244° |
| 2026-04-29 09:07 | 42.99389 | 0.55663 | 25314 ft | 452 kts | 254° |
| 2026-04-29 09:07 | 42.98777 | 0.51431 | 25628 ft | 455 kts | 259° |
| 2026-04-29 09:07 | 42.98328 | 0.47150 | 25992 ft | 457 kts | 261° |
| 2026-04-29 09:08 | 42.97949 | 0.42813 | 26320 ft | 459 kts | 261° |
| 2026-04-29 09:08 | 42.97597 | 0.38534 | 26655 ft | 459 kts | 261° |
| 2026-04-29 09:08 | 42.97236 | 0.34176 | 26897 ft | 462 kts | 261° |
| 2026-04-29 09:08 | 42.96862 | 0.29827 | 27346 ft | 460 kts | 261° |
| 2026-04-29 09:09 | 42.96473 | 0.25501 | 27853 ft | 457 kts | 260° |
| 2026-04-29 09:09 | 42.96075 | 0.21196 | 28287 ft | 456 kts | 260° |
| 2026-04-29 09:09 | 42.95673 | 0.16918 | 28720 ft | 454 kts | 260° |
| 2026-04-29 09:09 | 42.95262 | 0.12653 | 29155 ft | 452 kts | 259° |
| 2026-04-29 09:10 | 42.94853 | 0.08406 | 29617 ft | 450 kts | 260° |
| 2026-04-29 09:10 | 42.94446 | 0.04173 | 30059 ft | 448 kts | 259° |
| 2026-04-29 09:10 | 42.94040 | -0.00036 | 30451 ft | 446 kts | 259° |
| 2026-04-29 09:10 | 42.93637 | -0.04177 | 30829 ft | 445 kts | 259° |
| 2026-04-29 09:11 | 42.93229 | -0.08369 | 31176 ft | 445 kts | 259° |
| 2026-04-29 09:11 | 42.92823 | -0.12541 | 31591 ft | 443 kts | 259° |
| 2026-04-29 09:11 | 42.92416 | -0.16700 | 31995 ft | 441 kts | 259° |
| 2026-04-29 09:11 | 42.92010 | -0.20849 | 32353 ft | 440 kts | 259° |
| 2026-04-29 09:12 | 42.91601 | -0.24984 | 32695 ft | 439 kts | 258° |
| 2026-04-29 09:12 | 42.91199 | -0.29052 | 32865 ft | 423 kts | 258° |
| 2026-04-29 09:12 | 42.90814 | -0.32954 | 32929 ft | 409 kts | 258° |
| 2026-04-29 09:13 | 42.90025 | -0.40787 | 32918 ft | 423 kts | 258° |
| 2026-04-29 09:13 | 42.89216 | -0.48822 | 32920 ft | 435 kts | 258° |
| 2026-04-29 09:14 | 42.88388 | -0.57027 | 32907 ft | 438 kts | 258° |
| 2026-04-29 09:14 | 42.87544 | -0.65261 | 32899 ft | 438 kts | 258° |
| 2026-04-29 09:15 | 42.86545 | -0.73443 | 32895 ft | 437 kts | 256° |
| 2026-04-29 09:15 | 42.85450 | -0.81587 | 32897 ft | 437 kts | 256° |
| 2026-04-29 09:16 | 42.84354 | -0.89690 | 32903 ft | 437 kts | 256° |
| 2026-04-29 09:16 | 42.83261 | -0.97837 | 32897 ft | 437 kts | 256° |
| 2026-04-29 09:17 | 42.82172 | -1.05989 | 32907 ft | 437 kts | 256° |
| 2026-04-29 09:17 | 42.81078 | -1.14136 | 32906 ft | 437 kts | 256° |
| 2026-04-29 09:18 | 42.79981 | -1.22278 | 32911 ft | 437 kts | 256° |
| 2026-04-29 09:18 | 42.78883 | -1.30349 | 32912 ft | 436 kts | 255° |
| 2026-04-29 09:19 | 42.77770 | -1.38486 | 32905 ft | 436 kts | 255° |
| 2026-04-29 09:19 | 42.76654 | -1.46614 | 32920 ft | 436 kts | 255° |
| 2026-04-29 09:20 | 42.75540 | -1.54678 | 32911 ft | 436 kts | 255° |
| 2026-04-29 09:20 | 42.74413 | -1.62794 | 32915 ft | 436 kts | 255° |
| 2026-04-29 09:21 | 42.73168 | -1.70845 | 32919 ft | 433 kts | 251° |
| 2026-04-29 09:21 | 42.71495 | -1.78679 | 32908 ft | 432 kts | 249° |
| 2026-04-29 09:22 | 42.69732 | -1.86495 | 32914 ft | 432 kts | 249° |
| 2026-04-29 09:22 | 42.67949 | -1.94314 | 32911 ft | 433 kts | 249° |
| 2026-04-29 09:23 | 42.66179 | -2.02086 | 32914 ft | 433 kts | 249° |
| 2026-04-29 09:23 | 42.64398 | -2.09906 | 32903 ft | 433 kts | 249° |
| 2026-04-29 09:24 | 42.62596 | -2.17729 | 32897 ft | 433 kts | 248° |
| 2026-04-29 09:24 | 42.60722 | -2.25507 | 32890 ft | 433 kts | 248° |
| 2026-04-29 09:25 | 42.58823 | -2.33281 | 32884 ft | 434 kts | 248° |
| 2026-04-29 09:25 | 42.56933 | -2.41006 | 32880 ft | 434 kts | 248° |
| 2026-04-29 09:26 | 42.55024 | -2.48806 | 32891 ft | 435 kts | 248° |
| 2026-04-29 09:26 | 42.53119 | -2.56579 | 32886 ft | 435 kts | 248° |
| 2026-04-29 09:27 | 42.51217 | -2.64314 | 32890 ft | 435 kts | 247° |
| 2026-04-29 09:27 | 42.49291 | -2.72115 | 32889 ft | 435 kts | 247° |
| 2026-04-29 09:28 | 42.47366 | -2.79882 | 32885 ft | 435 kts | 247° |
| 2026-04-29 09:28 | 42.45389 | -2.87620 | 32880 ft | 433 kts | 243° |
| 2026-04-29 09:29 | 42.42984 | -2.95038 | 32883 ft | 433 kts | 241° |
| 2026-04-29 09:29 | 42.39202 | -3.06140 | 32882 ft | 433 kts | 241° |
| 2026-04-29 09:30 | 42.36667 | -3.13526 | 32880 ft | 433 kts | 240° |
| 2026-04-29 09:30 | 42.34128 | -3.20926 | 32880 ft | 434 kts | 240° |
| 2026-04-29 09:31 | 42.31603 | -3.28275 | 32879 ft | 434 kts | 240° |
| 2026-04-29 09:31 | 42.29057 | -3.35671 | 32882 ft | 435 kts | 240° |
| 2026-04-29 09:32 | 42.26503 | -3.43072 | 32880 ft | 434 kts | 240° |
| 2026-04-29 09:32 | 42.23946 | -3.50456 | 32884 ft | 435 kts | 240° |
| 2026-04-29 09:33 | 42.21379 | -3.57851 | 32874 ft | 435 kts | 240° |
| 2026-04-29 09:33 | 42.18807 | -3.65241 | 32878 ft | 435 kts | 240° |
| 2026-04-29 09:34 | 42.16246 | -3.72579 | 32874 ft | 436 kts | 240° |
| 2026-04-29 09:34 | 42.13663 | -3.79963 | 32869 ft | 436 kts | 240° |
| 2026-04-29 09:35 | 42.11072 | -3.87349 | 32862 ft | 436 kts | 239° |
| 2026-04-29 09:35 | 42.08477 | -3.94723 | 32862 ft | 436 kts | 239° |
| 2026-04-29 09:36 | 42.05879 | -4.02093 | 32850 ft | 436 kts | 239° |
| 2026-04-29 09:36 | 42.03281 | -4.09442 | 32850 ft | 435 kts | 239° |
| 2026-04-29 09:37 | 42.00615 | -4.16688 | 32852 ft | 434 kts | 238° |
| 2026-04-29 09:37 | 41.97860 | -4.23896 | 32859 ft | 434 kts | 238° |
| 2026-04-29 09:38 | 41.95097 | -4.31096 | 32850 ft | 434 kts | 238° |
| 2026-04-29 09:38 | 41.92338 | -4.38303 | 32850 ft | 434 kts | 238° |
| 2026-04-29 09:39 | 41.89581 | -4.45508 | 32852 ft | 434 kts | 238° |
| 2026-04-29 09:39 | 41.86817 | -4.52714 | 32849 ft | 434 kts | 238° |
| 2026-04-29 09:40 | 41.84068 | -4.59862 | 32851 ft | 435 kts | 238° |
| 2026-04-29 09:40 | 41.81286 | -4.67081 | 32874 ft | 435 kts | 238° |
| 2026-04-29 09:41 | 41.78973 | -4.73066 | 32884 ft | 436 kts | 238° |
| 2026-04-29 09:41 | 41.76177 | -4.80285 | 32885 ft | 436 kts | 238° |
| 2026-04-29 09:42 | 41.73380 | -4.87486 | 32884 ft | 437 kts | 238° |
| 2026-04-29 09:42 | 41.70564 | -4.94722 | 32883 ft | 438 kts | 238° |
| 2026-04-29 09:43 | 41.67741 | -5.01955 | 32880 ft | 439 kts | 238° |
| 2026-04-29 09:43 | 41.64915 | -5.09179 | 32872 ft | 440 kts | 239° |
| 2026-04-29 09:44 | 41.62065 | -5.16448 | 32861 ft | 440 kts | 239° |
| 2026-04-29 09:44 | 41.59219 | -5.23687 | 32846 ft | 441 kts | 239° |
| 2026-04-29 09:45 | 41.56380 | -5.30889 | 32836 ft | 441 kts | 239° |
| 2026-04-29 09:45 | 41.53520 | -5.38130 | 32830 ft | 441 kts | 239° |
| 2026-04-29 09:46 | 41.50649 | -5.45378 | 32836 ft | 442 kts | 239° |
| 2026-04-29 09:46 | 41.47779 | -5.52607 | 32833 ft | 441 kts | 239° |
| 2026-04-29 09:47 | 41.44896 | -5.59850 | 32827 ft | 442 kts | 239° |
| 2026-04-29 09:47 | 41.42010 | -5.67085 | 32833 ft | 443 kts | 238° |
| 2026-04-29 09:48 | 41.39132 | -5.74279 | 32828 ft | 443 kts | 238° |
| 2026-04-29 09:48 | 41.36229 | -5.81519 | 32827 ft | 443 kts | 238° |
| 2026-04-29 09:49 | 41.33326 | -5.88740 | 32824 ft | 443 kts | 238° |
| 2026-04-29 09:49 | 41.30408 | -5.95982 | 32825 ft | 444 kts | 238° |
| 2026-04-29 09:50 | 41.27490 | -6.03207 | 32825 ft | 444 kts | 238° |
| 2026-04-29 09:50 | 41.24583 | -6.10389 | 32823 ft | 444 kts | 238° |
| 2026-04-29 09:51 | 41.21495 | -6.17496 | 32829 ft | 443 kts | 233° |
| 2026-04-29 09:51 | 41.17919 | -6.24139 | 32828 ft | 443 kts | 231° |
| 2026-04-29 09:52 | 41.14276 | -6.30743 | 32828 ft | 443 kts | 231° |
| 2026-04-29 09:52 | 41.10291 | -6.36931 | 32827 ft | 441 kts | 223° |
| 2026-04-29 09:53 | 41.05946 | -6.42678 | 32825 ft | 441 kts | 223° |
| 2026-04-29 09:53 | 41.01608 | -6.48341 | 32824 ft | 441 kts | 222° |
| 2026-04-29 09:54 | 40.97236 | -6.54029 | 32828 ft | 441 kts | 223° |
| 2026-04-29 09:54 | 40.92861 | -6.59710 | 32826 ft | 440 kts | 223° |
| 2026-04-29 09:55 | 40.88492 | -6.65369 | 32822 ft | 440 kts | 223° |
| 2026-04-29 09:55 | 40.84123 | -6.71020 | 32825 ft | 439 kts | 223° |
| 2026-04-29 09:56 | 40.79764 | -6.76644 | 32827 ft | 438 kts | 223° |
| 2026-04-29 09:56 | 40.75434 | -6.82223 | 32833 ft | 438 kts | 223° |
| 2026-04-29 09:57 | 40.71074 | -6.87828 | 32831 ft | 438 kts | 223° |
| 2026-04-29 09:57 | 40.66713 | -6.93423 | 32832 ft | 438 kts | 223° |
| 2026-04-29 09:58 | 40.62356 | -6.99003 | 32836 ft | 438 kts | 223° |
| 2026-04-29 09:58 | 40.57974 | -7.04602 | 32839 ft | 438 kts | 223° |
| 2026-04-29 09:59 | 40.53602 | -7.10180 | 32842 ft | 438 kts | 223° |
| 2026-04-29 09:59 | 40.49226 | -7.15751 | 32839 ft | 438 kts | 223° |
| 2026-04-29 10:00 | 40.44889 | -7.21262 | 32842 ft | 438 kts | 223° |
| 2026-04-29 10:00 | 40.40507 | -7.26820 | 32842 ft | 437 kts | 223° |
| 2026-04-29 10:01 | 40.36124 | -7.32367 | 32847 ft | 437 kts | 223° |
| 2026-04-29 10:01 | 40.31758 | -7.37885 | 32850 ft | 437 kts | 223° |
| 2026-04-29 10:02 | 40.27371 | -7.43418 | 32850 ft | 437 kts | 223° |
| 2026-04-29 10:02 | 40.23020 | -7.48895 | 32843 ft | 437 kts | 223° |
| 2026-04-29 10:03 | 40.18639 | -7.54398 | 32844 ft | 437 kts | 223° |
| 2026-04-29 10:03 | 40.14254 | -7.59898 | 32847 ft | 437 kts | 223° |
| 2026-04-29 10:04 | 40.09876 | -7.65378 | 32853 ft | 436 kts | 223° |
| 2026-04-29 10:04 | 40.05486 | -7.70861 | 32847 ft | 436 kts | 224° |
| 2026-04-29 10:05 | 40.01132 | -7.76291 | 32848 ft | 435 kts | 224° |
| 2026-04-29 10:05 | 39.96753 | -7.81742 | 32849 ft | 435 kts | 224° |
| 2026-04-29 10:06 | 39.94582 | -7.84440 | 32540 ft | 426 kts | 224° |
| 2026-04-29 10:06 | 39.92450 | -7.87088 | 31570 ft | 421 kts | 223° |
| 2026-04-29 10:06 | 39.90341 | -7.89705 | 30546 ft | 418 kts | 223° |
| 2026-04-29 10:06 | 39.88256 | -7.92290 | 29357 ft | 410 kts | 223° |
| 2026-04-29 10:07 | 39.86202 | -7.94833 | 28087 ft | 405 kts | 223° |
| 2026-04-29 10:07 | 39.84189 | -7.97323 | 26877 ft | 398 kts | 222° |
| 2026-04-29 10:07 | 39.82219 | -7.99760 | 25766 ft | 392 kts | 222° |
| 2026-04-29 10:07 | 39.80257 | -8.02186 | 24675 ft | 386 kts | 222° |
| 2026-04-29 10:08 | 39.78318 | -8.04579 | 23595 ft | 382 kts | 221° |
| 2026-04-29 10:08 | 39.76405 | -8.06939 | 22410 ft | 377 kts | 221° |
| 2026-04-29 10:08 | 39.74515 | -8.09268 | 21282 ft | 371 kts | 221° |
| 2026-04-29 10:08 | 39.72658 | -8.11555 | 20234 ft | 365 kts | 221° |
| 2026-04-29 10:09 | 39.70829 | -8.13805 | 19195 ft | 360 kts | 221° |
| 2026-04-29 10:09 | 39.69022 | -8.16025 | 18202 ft | 355 kts | 221° |
| 2026-04-29 10:09 | 39.67245 | -8.18209 | 17084 ft | 350 kts | 221° |
| 2026-04-29 10:09 | 39.65492 | -8.20360 | 16018 ft | 344 kts | 222° |
| 2026-04-29 10:10 | 39.63761 | -8.22483 | 15038 ft | 342 kts | 222° |
| 2026-04-29 10:10 | 39.62043 | -8.24588 | 14387 ft | 340 kts | 222° |
| 2026-04-29 10:10 | 39.60352 | -8.26660 | 13924 ft | 337 kts | 222° |
| 2026-04-29 10:10 | 39.58654 | -8.28738 | 13416 ft | 333 kts | 222° |
| 2026-04-29 10:11 | 39.56974 | -8.30793 | 12856 ft | 331 kts | 222° |
| 2026-04-29 10:11 | 39.55307 | -8.32830 | 12386 ft | 328 kts | 222° |
| 2026-04-29 10:11 | 39.53651 | -8.34854 | 11864 ft | 326 kts | 222° |
| 2026-04-29 10:11 | 39.52008 | -8.36860 | 11319 ft | 324 kts | 222° |
| 2026-04-29 10:12 | 39.50380 | -8.38846 | 10943 ft | 321 kts | 222° |
| 2026-04-29 10:12 | 39.48755 | -8.40827 | 10877 ft | 321 kts | 222° |
| 2026-04-29 10:12 | 39.47127 | -8.42810 | 10865 ft | 321 kts | 222° |
| 2026-04-29 10:12 | 39.45498 | -8.44793 | 10864 ft | 322 kts | 222° |
| 2026-04-29 10:13 | 39.43867 | -8.46777 | 10864 ft | 322 kts | 222° |
| 2026-04-29 10:13 | 39.42239 | -8.48755 | 10861 ft | 322 kts | 222° |
| 2026-04-29 10:13 | 39.40606 | -8.50740 | 10864 ft | 322 kts | 222° |
| 2026-04-29 10:13 | 39.38999 | -8.52692 | 10778 ft | 321 kts | 222° |
| 2026-04-29 10:14 | 39.37364 | -8.54675 | 10207 ft | 322 kts | 222° |
| 2026-04-29 10:14 | 39.35739 | -8.56646 | 9714 ft | 319 kts | 222° |
| 2026-04-29 10:14 | 39.34126 | -8.58600 | 9155 ft | 317 kts | 222° |
| 2026-04-29 10:14 | 39.32525 | -8.60538 | 8560 ft | 315 kts | 222° |
| 2026-04-29 10:15 | 39.30930 | -8.62469 | 8003 ft | 313 kts | 222° |
| 2026-04-29 10:15 | 39.29346 | -8.64385 | 7454 ft | 312 kts | 222° |
| 2026-04-29 10:15 | 39.27766 | -8.66292 | 6971 ft | 310 kts | 223° |
| 2026-04-29 10:15 | 39.26197 | -8.68186 | 6454 ft | 307 kts | 223° |
| 2026-04-29 10:16 | 39.24645 | -8.70061 | 5917 ft | 305 kts | 223° |
| 2026-04-29 10:16 | 39.23616 | -8.71302 | 5556 ft | 304 kts | 223° |
| 2026-04-29 10:16 | 39.21621 | -8.73710 | 5217 ft | 289 kts | 223° |
| 2026-04-29 10:16 | 39.20179 | -8.75448 | 5006 ft | 277 kts | 223° |
| 2026-04-29 10:17 | 39.18796 | -8.77114 | 4763 ft | 269 kts | 222° |
| 2026-04-29 10:17 | 39.17440 | -8.78745 | 4420 ft | 265 kts | 222° |
| 2026-04-29 10:17 | 39.16100 | -8.80360 | 4120 ft | 263 kts | 221° |
| 2026-04-29 10:17 | 39.14770 | -8.81955 | 4007 ft | 260 kts | 223° |
| 2026-04-29 10:18 | 39.13452 | -8.83543 | 4003 ft | 261 kts | 229° |
| 2026-04-29 10:18 | 39.12377 | -8.85442 | 4009 ft | 263 kts | 234° |
| 2026-04-29 10:18 | 39.11342 | -8.87378 | 3997 ft | 262 kts | 234° |
| 2026-04-29 10:18 | 39.10325 | -8.89282 | 4006 ft | 261 kts | 234° |
| 2026-04-29 10:19 | 39.09295 | -8.91209 | 4015 ft | 261 kts | 234° |
| 2026-04-29 10:19 | 39.08027 | -8.92841 | 3996 ft | 259 kts | 209° |
| 2026-04-29 10:19 | 39.06442 | -8.93781 | 3995 ft | 260 kts | 208° |
| 2026-04-29 10:19 | 39.04934 | -8.95060 | 3997 ft | 260 kts | 216° |
| 2026-04-29 10:20 | 39.03492 | -8.96470 | 4007 ft | 261 kts | 218° |
| 2026-04-29 10:20 | 39.02070 | -8.97925 | 3990 ft | 261 kts | 219° |
| 2026-04-29 10:20 | 39.00669 | -8.99392 | 3990 ft | 260 kts | 219° |
| 2026-04-29 10:20 | 38.99272 | -9.00871 | 4000 ft | 260 kts | 219° |
| 2026-04-29 10:21 | 38.97873 | -9.02343 | 3993 ft | 260 kts | 218° |
| 2026-04-29 10:21 | 38.96397 | -9.03678 | 3975 ft | 261 kts | 211° |
| 2026-04-29 10:21 | 38.94781 | -9.04688 | 3715 ft | 252 kts | 202° |
| 2026-04-29 10:21 | 38.93252 | -9.05458 | 3374 ft | 224 kts | 202° |
| 2026-04-29 10:22 | 38.91870 | -9.06197 | 3051 ft | 207 kts | 205° |
| 2026-04-29 10:22 | 38.90587 | -9.06903 | 2765 ft | 195 kts | 204° |
| 2026-04-29 10:22 | 38.89395 | -9.07545 | 2505 ft | 179 kts | 204° |
| 2026-04-29 10:22 | 38.88290 | -9.08139 | 2249 ft | 164 kts | 203° |
| 2026-04-29 10:23 | 38.87295 | -9.08673 | 2063 ft | 146 kts | 204° |
| 2026-04-29 10:23 | 38.86389 | -9.09160 | 1884 ft | 138 kts | 205° |
| 2026-04-29 10:23 | 38.85502 | -9.09638 | 1692 ft | 138 kts | 205° |
| 2026-04-29 10:23 | 38.84617 | -9.10115 | 1513 ft | 139 kts | 204° |
| 2026-04-29 10:24 | 38.83722 | -9.10578 | 1490 ft | 142 kts | 204° |
| 2026-04-29 10:24 | 38.82773 | -9.11081 | 1187 ft | 150 kts | 203° |
| 2026-04-29 10:24 | 38.81837 | -9.11583 | 834 ft | 144 kts | 206° |
| 2026-04-29 10:24 | 38.80964 | -9.12071 | 735 ft | 136 kts | 206° |
| 2026-04-29 10:25 | 38.80078 | -9.12523 | 575 ft | 139 kts | 204° |
| 2026-04-29 10:25 | 38.79203 | -9.12993 | 394 ft | 129 kts | 206° |
| 2026-04-29 10:25 | 38.78460 | -9.13407 | 363 ft | 93 kts | 204° |
| 2026-04-29 10:25 | 38.78094 | -9.13609 | 362 ft | 37 kts | 203° |
| 2026-04-29 10:26 | 38.77814 | -9.13743 | 352 ft | 45 kts | 192° |
| 2026-04-29 10:26 | 38.77561 | -9.13754 | 359 ft | 19 kts | 178° |
| 2026-04-29 10:26 | 38.77445 | -9.13751 | 355 ft | 7 kts | 179° |
| 2026-04-29 10:26 | 38.77443 | -9.13751 | 356 ft | 0 kts | 179° |
| 2026-04-29 10:28 | 38.77421 | -9.13753 | 361 ft | 5 kts | 186° |
| 2026-04-29 10:28 | 38.77375 | -9.13768 | 359 ft | 9 kts | 197° |
| 2026-04-29 10:28 | 38.77324 | -9.13786 | 358 ft | 7 kts | 186° |
| 2026-04-29 10:29 | 38.77285 | -9.13771 | 354 ft | 7 kts | 141° |
| 2026-04-29 10:29 | 38.77262 | -9.13704 | 360 ft | 7 kts | 83° |
| 2026-04-29 10:29 | 38.77267 | -9.13643 | 359 ft | 7 kts | 83° |
| 2026-04-29 10:29 | 38.77273 | -9.13585 | 353 ft | 5 kts | 80° |
| 2026-04-29 10:30 | 38.77333 | -9.13523 | 360 ft | 14 kts | 6° |
| 2026-04-29 10:30 | 38.77405 | -9.13531 | 359 ft | 6 kts | 358° |
| 2026-04-29 10:30 | 38.77446 | -9.13522 | 357 ft | 7 kts | 17° |
| 2026-04-29 10:30 | 38.77491 | -9.13488 | 356 ft | 14 kts | 33° |
| 2026-04-29 10:31 | 38.77590 | -9.13425 | 357 ft | 21 kts | 22° |
| 2026-04-29 10:31 | 38.77730 | -9.13302 | 360 ft | 25 kts | 70° |
| 2026-04-29 10:31 | 38.77789 | -9.13055 | 361 ft | 33 kts | 56° |
| 2026-04-29 10:31 | 38.77906 | -9.12924 | 359 ft | 8 kts | 40° |
| 2026-04-29 10:32 | 38.77949 | -9.12929 | 355 ft | 7 kts | 329° |
| 2026-04-29 10:32 | 38.77974 | -9.12947 | 359 ft | 0 kts | 308° |